createdAt,value
2018-10-16T00:00:28.206Z,68.10
2018-10-16T00:03:01.839Z,68.40
2018-10-16T00:05:37.717Z,67.80
2018-10-16T00:08:11.210Z,67.80
2018-10-16T00:10:51.135Z,68.00
2018-10-16T00:13:31.044Z,68.10
2018-10-16T00:16:04.620Z,68.10
2018-10-16T00:18:38.129Z,68.80
2018-10-16T00:21:11.589Z,68.20
2018-10-16T00:23:45.114Z,68.30
2018-10-16T00:26:18.664Z,68.40
2018-10-16T00:28:53.151Z,68.90
2018-10-16T00:31:26.661Z,69.10
2018-10-16T00:34:01.077Z,69.00
2018-10-16T00:36:35.618Z,68.90
2018-10-16T00:39:12.409Z,68.70
2018-10-16T00:41:51.837Z,68.70
2018-10-16T00:44:25.277Z,69.00
2018-10-16T00:46:58.914Z,69.40
2018-10-16T00:49:32.398Z,70.70
2018-10-16T00:52:06.085Z,69.50
2018-10-16T00:54:39.483Z,69.80
2018-10-16T00:57:12.997Z,69.40
2018-10-16T00:59:46.494Z,69.40
2018-10-16T01:02:26.500Z,69.50
2018-10-16T01:05:02.935Z,69.50
2018-10-16T01:07:36.344Z,69.50
2018-10-16T01:10:11.561Z,69.20
2018-10-16T01:12:45.057Z,69.30
2018-10-16T01:15:18.593Z,69.40
2018-10-16T01:17:51.978Z,69.50
2018-10-16T01:20:25.573Z,69.50
2018-10-16T01:22:58.940Z,69.40
2018-10-16T01:25:32.627Z,70.30
2018-10-16T01:28:06.240Z,69.60
2018-10-16T01:30:39.742Z,69.40
2018-10-16T01:33:13.330Z,69.60
2018-10-16T01:35:46.929Z,69.80
2018-10-16T01:38:20.365Z,70.00
2018-10-16T01:40:53.743Z,70.10
2018-10-16T01:43:29.237Z,70.20
2018-10-16T01:46:02.828Z,70.10
2018-10-16T01:48:36.649Z,69.90
2018-10-16T01:51:16.341Z,70.10
2018-10-16T01:53:49.780Z,70.00
2018-10-16T01:56:23.083Z,70.40
2018-10-16T01:58:56.490Z,70.40
2018-10-16T02:01:31.988Z,70.40
2018-10-16T02:04:05.623Z,70.40
2018-10-16T02:06:39.102Z,70.70
2018-10-16T02:09:12.629Z,70.40
2018-10-16T02:11:47.133Z,70.30
2018-10-16T02:14:20.575Z,70.60
2018-10-16T02:16:57.256Z,70.40
2018-10-16T02:19:30.752Z,70.50
2018-10-16T02:22:05.453Z,70.40
2018-10-16T02:24:38.924Z,70.60
2018-10-16T02:27:12.520Z,70.50
2018-10-16T02:29:52.413Z,70.90
2018-10-16T02:32:25.879Z,70.90
2018-10-16T02:34:59.299Z,70.80
2018-10-16T02:37:33.750Z,70.80
2018-10-16T02:40:09.085Z,70.40
2018-10-16T02:42:42.531Z,70.40
2018-10-16T02:45:16.142Z,70.90
2018-10-16T02:47:50.662Z,70.80
2018-10-16T02:50:25.082Z,70.70
2018-10-16T02:52:58.835Z,70.60
2018-10-16T02:55:32.535Z,70.50
2018-10-16T02:58:06.156Z,70.40
2018-10-16T03:00:41.775Z,70.80
2018-10-16T03:03:15.436Z,71.00
2018-10-16T03:05:48.883Z,71.00
2018-10-16T03:08:23.459Z,71.00
2018-10-16T03:10:57.342Z,71.10
2018-10-16T03:13:30.767Z,71.00
2018-10-16T03:16:04.580Z,71.10
2018-10-16T03:18:38.187Z,71.20
2018-10-16T03:21:11.756Z,71.30
2018-10-16T03:23:51.789Z,71.20
2018-10-16T03:26:25.354Z,71.20
2018-10-16T03:28:58.896Z,71.00
2018-10-16T03:31:32.328Z,71.70
2018-10-16T03:34:06.057Z,71.10
2018-10-16T03:36:40.604Z,71.20
2018-10-16T03:39:20.388Z,71.30
2018-10-16T03:41:53.704Z,71.30
2018-10-16T03:44:27.189Z,71.30
2018-10-16T03:47:00.756Z,71.20
2018-10-16T03:49:34.282Z,71.10
2018-10-16T03:52:07.899Z,72.00
2018-10-16T03:54:41.326Z,71.00
2018-10-16T03:57:15.680Z,71.00
2018-10-16T03:59:55.907Z,70.90
2018-10-16T04:02:29.385Z,70.90
2018-10-16T04:05:03.171Z,70.90
2018-10-16T04:07:38.087Z,71.10
2018-10-16T04:10:11.598Z,71.30
2018-10-16T04:12:50.390Z,71.30
2018-10-16T04:15:23.917Z,71.30
2018-10-16T04:17:57.338Z,71.20
2018-10-16T04:20:30.771Z,71.10
2018-10-16T04:23:04.379Z,71.20
2018-10-16T04:25:44.139Z,71.10
2018-10-16T04:28:17.472Z,71.20
2018-10-16T04:30:50.808Z,71.20
2018-10-16T04:33:24.222Z,71.20
2018-10-16T04:35:57.850Z,71.10
2018-10-16T04:38:32.347Z,71.40
2018-10-16T04:41:05.837Z,71.60
2018-10-16T04:43:39.497Z,71.50
2018-10-16T04:46:13.013Z,71.70
2018-10-16T04:48:52.787Z,72.70
2018-10-16T04:51:27.144Z,71.80
2018-10-16T04:54:01.660Z,71.80
2018-10-16T04:56:36.053Z,71.70
2018-10-16T04:59:09.786Z,71.80
2018-10-16T05:01:44.265Z,71.60
2018-10-16T05:04:17.978Z,71.80
2018-10-16T05:06:51.523Z,71.70
2018-10-16T05:09:25.000Z,71.70
2018-10-16T05:11:58.627Z,71.70
2018-10-16T05:14:32.083Z,71.80
2018-10-16T05:17:05.644Z,71.70
2018-10-16T05:19:39.231Z,71.80
2018-10-16T05:22:19.045Z,71.70
2018-10-16T05:24:52.451Z,71.80
2018-10-16T05:27:32.417Z,71.80
2018-10-16T05:30:06.058Z,71.90
2018-10-16T05:32:39.694Z,71.90
2018-10-16T05:35:13.182Z,72.10
2018-10-16T05:37:46.708Z,72.20
2018-10-16T05:40:20.302Z,72.10
2018-10-16T05:42:53.701Z,72.10
2018-10-16T05:45:35.615Z,72.00
2018-10-16T05:48:09.116Z,72.20
2018-10-16T05:50:42.772Z,72.40
2018-10-16T05:53:16.288Z,72.30
2018-10-16T05:56:03.643Z,72.30
2018-10-16T05:58:37.147Z,72.30
2018-10-16T06:01:16.949Z,72.20
2018-10-16T06:03:50.499Z,71.70
2018-10-16T06:06:24.065Z,72.30
2018-10-16T06:08:58.853Z,72.50
2018-10-16T06:11:32.365Z,71.90
2018-10-16T06:14:12.361Z,72.60
2018-10-16T06:16:45.815Z,72.70
2018-10-16T06:19:19.406Z,72.70
2018-10-16T06:21:52.869Z,72.80
2018-10-16T06:24:26.505Z,73.60
2018-10-16T06:27:00.029Z,73.00
2018-10-16T06:29:39.956Z,73.10
2018-10-16T06:32:13.509Z,73.10
2018-10-16T06:34:46.978Z,73.10
2018-10-16T06:37:27.088Z,73.70
2018-10-16T06:40:00.525Z,73.20
2018-10-16T06:42:40.273Z,73.40
2018-10-16T06:45:13.858Z,73.40
2018-10-16T06:47:47.490Z,73.50
2018-10-16T06:50:27.301Z,73.60
2018-10-16T06:53:01.065Z,73.90
2018-10-16T06:55:35.554Z,73.90
2018-10-16T06:58:09.196Z,73.90
2018-10-16T07:00:42.746Z,74.00
2018-10-16T07:03:22.654Z,74.10
2018-10-16T07:06:02.521Z,74.20
2018-10-16T07:08:42.482Z,74.60
2018-10-16T07:11:22.273Z,75.40
2018-10-16T07:14:02.193Z,74.90
2018-10-16T07:16:42.040Z,74.90
2018-10-16T07:19:15.393Z,74.70
2018-10-16T07:21:53.140Z,74.60
2018-10-16T07:24:33.273Z,74.40
2018-10-16T07:27:13.197Z,74.30
2018-10-16T07:29:46.711Z,74.30
2018-10-16T07:32:20.285Z,74.20
2018-10-16T07:34:53.753Z,73.90
2018-10-16T07:37:27.321Z,73.70
2018-10-16T07:40:08.290Z,73.70
2018-10-16T07:42:43.326Z,73.30
2018-10-16T07:45:16.815Z,73.00
2018-10-16T07:47:50.332Z,73.10
2018-10-16T07:50:23.927Z,73.30
2018-10-16T07:53:03.618Z,73.40
2018-10-16T07:55:39.148Z,73.10
2018-10-16T07:58:12.649Z,72.80
2018-10-16T08:00:46.161Z,72.60
2018-10-16T08:03:25.529Z,72.60
2018-10-16T08:05:59.056Z,72.40
2018-10-16T08:08:32.604Z,72.40
2018-10-16T08:11:07.046Z,72.20
2018-10-16T08:13:40.608Z,72.90
2018-10-16T08:16:21.237Z,71.50
2018-10-16T08:18:54.645Z,71.80
2018-10-16T08:21:29.311Z,71.50
2018-10-16T08:24:09.490Z,71.30
2018-10-16T08:26:44.065Z,71.00
2018-10-16T08:29:17.570Z,71.10
2018-10-16T08:31:51.493Z,70.80
2018-10-16T08:34:25.052Z,70.50
2018-10-16T08:37:04.957Z,70.40
2018-10-16T08:39:41.116Z,70.50
2018-10-16T08:43:39.102Z,70.70
2018-10-16T08:46:26.901Z,70.80
2018-10-16T08:49:12.086Z,70.40
2018-10-16T08:51:55.813Z,70.00
2018-10-16T08:54:29.313Z,70.00
2018-10-16T08:57:09.121Z,68.50
2018-10-16T08:59:42.553Z,68.60
2018-10-16T09:02:22.601Z,68.40
2018-10-16T09:04:56.109Z,68.50
2018-10-16T09:14:32.376Z,68.80
2018-10-16T09:17:05.963Z,68.10
2018-10-16T09:19:45.805Z,68.50
2018-10-16T09:22:19.315Z,68.70
2018-10-16T09:24:52.808Z,68.40
2018-10-16T09:27:32.692Z,68.30
2018-10-16T09:30:13.345Z,68.00
2018-10-16T09:32:46.769Z,68.10
2018-10-16T09:35:20.205Z,68.30
2018-10-16T09:37:53.821Z,68.10
2018-10-16T09:40:27.324Z,68.00
2018-10-16T09:43:00.824Z,68.40
2018-10-16T09:45:40.902Z,68.60
2018-10-16T09:48:15.277Z,69.10
2018-10-16T09:50:48.737Z,69.40
2018-10-16T09:53:22.297Z,69.60
2018-10-16T09:55:55.845Z,70.40
2018-10-16T09:58:29.912Z,70.70
2018-10-16T10:01:09.270Z,71.60
2018-10-16T10:03:43.795Z,71.80
2018-10-16T10:06:17.247Z,71.20
2018-10-16T10:08:50.697Z,69.90
2018-10-16T10:11:30.656Z,69.30
2018-10-16T10:14:10.467Z,68.90
2018-10-16T10:16:46.091Z,68.70
2018-10-16T10:19:19.805Z,68.50
2018-10-16T10:21:53.150Z,67.60
2018-10-16T10:24:32.941Z,68.10
2018-10-16T10:27:06.789Z,67.10
2018-10-16T10:29:40.382Z,66.70
2018-10-16T10:32:13.930Z,66.70
2018-10-16T10:34:53.817Z,66.20
2018-10-16T10:37:27.449Z,66.30
2018-10-16T10:40:07.245Z,66.10
2018-10-16T10:42:47.068Z,65.40
2018-10-16T10:45:26.773Z,65.20
2018-10-16T10:48:00.451Z,64.60
2018-10-16T10:50:34.294Z,64.50
2018-10-16T10:53:13.875Z,64.90
2018-10-16T10:55:47.453Z,64.20
2018-10-16T10:58:21.040Z,64.40
2018-10-16T11:00:54.627Z,63.80
2018-10-16T11:03:28.172Z,63.70
2018-10-16T11:06:01.688Z,63.20
2018-10-16T11:08:35.149Z,63.00
2018-10-16T11:11:08.670Z,62.40
2018-10-16T11:13:48.575Z,62.00
2018-10-16T11:16:22.062Z,62.50
2018-10-16T11:18:55.410Z,62.50
2018-10-16T11:21:29.875Z,61.80
2018-10-16T11:24:04.704Z,61.60
2018-10-16T11:26:39.239Z,61.40
2018-10-16T11:29:12.724Z,60.80
2018-10-16T11:31:47.276Z,60.60
2018-10-16T11:34:21.793Z,60.30
2018-10-16T11:36:55.408Z,59.60
2018-10-16T11:39:28.937Z,59.00
2018-10-16T11:42:08.809Z,58.80
2018-10-16T11:44:43.369Z,58.80
2018-10-16T11:47:23.307Z,58.80
2018-10-16T11:49:56.826Z,57.80
2018-10-16T11:52:30.413Z,57.80
2018-10-16T11:55:06.246Z,57.70
2018-10-16T11:57:39.699Z,57.50
2018-10-16T12:00:15.962Z,57.60
2018-10-16T12:02:49.617Z,57.20
2018-10-16T12:05:29.243Z,56.30
2018-10-16T12:08:02.862Z,55.70
2018-10-16T12:10:36.363Z,56.20
2018-10-16T12:13:16.355Z,56.70
2018-10-16T12:15:56.227Z,56.60
2018-10-16T12:18:33.331Z,56.60
2018-10-16T12:21:11.280Z,56.40
2018-10-16T12:23:45.175Z,55.10
2018-10-16T12:26:25.010Z,55.30
2018-10-16T12:28:59.426Z,55.40
2018-10-16T12:31:33.719Z,55.00
2018-10-16T12:34:13.635Z,54.80
2018-10-16T12:36:53.638Z,54.50
2018-10-16T12:39:27.285Z,54.30
2018-10-16T12:42:07.086Z,54.50
2018-10-16T12:44:40.645Z,54.70
2018-10-16T12:47:15.129Z,53.50
2018-10-16T12:49:48.865Z,53.00
2018-10-16T12:52:22.538Z,52.00
2018-10-16T12:54:56.161Z,51.80
2018-10-16T12:57:32.668Z,52.70
2018-10-16T13:00:12.465Z,51.60
2018-10-16T13:02:46.025Z,51.40
2018-10-16T13:05:19.637Z,51.20
2018-10-16T13:07:54.085Z,50.90
2018-10-16T13:10:27.653Z,51.30
2018-10-16T13:13:01.934Z,51.30
2018-10-16T13:15:35.482Z,51.30
2018-10-16T13:18:15.580Z,51.00
2018-10-16T13:20:56.822Z,53.00
2018-10-16T13:23:31.427Z,50.60
2018-10-16T13:26:05.184Z,47.50
2018-10-16T13:28:38.877Z,46.50
2018-10-16T13:31:12.973Z,45.50
2018-10-16T13:33:47.679Z,43.20
2018-10-16T13:36:27.525Z,43.90
2018-10-16T13:39:08.133Z,40.00
2018-10-16T13:41:46.284Z,40.20
2018-10-16T13:44:19.774Z,39.60
2018-10-16T13:46:59.626Z,40.30
2018-10-16T13:49:33.765Z,39.70
2018-10-16T13:52:07.619Z,38.60
2018-10-16T13:54:41.060Z,38.50
2018-10-16T13:57:14.712Z,38.70
2018-10-16T13:59:48.303Z,38.30
2018-10-16T14:02:22.018Z,37.10
2018-10-16T14:05:02.136Z,35.90
2018-10-16T14:07:42.327Z,36.40
2018-10-16T14:10:16.678Z,35.90
2018-10-16T14:12:50.349Z,35.30
2018-10-16T14:15:24.915Z,35.20
2018-10-16T14:18:05.166Z,35.20
2018-10-16T14:20:38.611Z,35.40
2018-10-16T14:23:12.293Z,35.00
2018-10-16T14:25:45.652Z,33.10
2018-10-16T14:28:25.586Z,34.30
2018-10-16T14:30:59.908Z,36.00
2018-10-16T14:33:39.929Z,34.90
2018-10-16T14:36:13.296Z,36.00
2018-10-16T14:38:46.982Z,37.50
2018-10-16T14:41:26.902Z,37.80
2018-10-16T14:44:00.408Z,38.70
2018-10-16T14:46:33.799Z,39.80
2018-10-16T14:49:08.216Z,40.80
2018-10-16T14:51:42.551Z,42.20
2018-10-16T14:54:16.211Z,43.50
2018-10-16T14:56:56.218Z,44.10
2018-10-16T14:59:36.263Z,44.70
2018-10-16T15:02:16.272Z,45.70
2018-10-16T15:04:49.818Z,45.50
2018-10-16T15:07:29.855Z,46.20
2018-10-16T15:10:03.816Z,47.10
2018-10-16T15:12:37.215Z,47.40
2018-10-16T15:15:10.819Z,47.70
2018-10-16T15:17:44.349Z,48.00
2018-10-16T15:20:17.921Z,48.00
2018-10-16T15:22:51.710Z,48.50
2018-10-16T15:25:25.293Z,49.10
2018-10-16T15:28:05.340Z,49.60
2018-10-16T15:30:38.721Z,50.10
2018-10-16T15:33:18.650Z,50.20
2018-10-16T15:35:59.152Z,50.00
2018-10-16T15:38:34.045Z,50.10
2018-10-16T15:41:08.076Z,50.30
2018-10-16T15:43:41.913Z,50.60
2018-10-16T15:46:22.196Z,50.70
2018-10-16T15:49:02.380Z,50.90
2018-10-16T15:51:36.487Z,51.10
2018-10-16T15:54:16.811Z,51.30
2018-10-16T15:56:50.627Z,51.30
2018-10-16T15:59:30.828Z,51.50
2018-10-16T16:02:11.107Z,51.60
2018-10-16T16:04:45.627Z,51.70
2018-10-16T16:07:20.548Z,52.20
2018-10-16T16:10:01.114Z,52.30
2018-10-16T16:12:36.339Z,52.40
2018-10-16T16:15:16.794Z,52.50
2018-10-16T16:17:50.888Z,52.50
2018-10-16T16:20:24.886Z,53.20
2018-10-16T16:23:05.213Z,52.60
2018-10-16T16:25:39.155Z,52.60
2018-10-16T16:28:13.050Z,52.60
2018-10-16T16:30:46.919Z,52.80
2018-10-16T16:33:20.848Z,52.90
2018-10-16T16:36:01.123Z,52.90
2018-10-16T16:38:35.137Z,53.00
2018-10-16T16:41:15.429Z,53.20
2018-10-16T16:43:55.746Z,53.30
2018-10-16T16:46:32.708Z,53.90
2018-10-16T16:49:12.777Z,53.30
2018-10-16T16:51:53.026Z,53.40
2018-10-16T16:54:33.223Z,53.40
2018-10-16T16:57:07.221Z,53.50
2018-10-16T16:59:41.205Z,53.80
2018-10-16T17:02:15.098Z,53.80
2018-10-16T17:04:55.366Z,53.90
2018-10-16T17:07:29.132Z,53.90
2018-10-16T17:10:03.985Z,54.00
2018-10-16T17:12:44.270Z,54.00
2018-10-16T17:15:18.252Z,54.20
2018-10-16T17:17:53.199Z,54.10
2018-10-16T17:20:26.898Z,54.20
2018-10-16T17:23:00.758Z,54.20
2018-10-16T17:25:35.025Z,54.40
2018-10-16T17:28:08.967Z,54.40
2018-10-16T17:30:42.762Z,54.30
2018-10-16T17:33:22.972Z,54.30
2018-10-16T17:35:56.811Z,54.50
2018-10-16T17:38:30.906Z,54.60
2018-10-16T17:41:04.856Z,54.70
2018-10-16T17:43:38.781Z,54.80
2018-10-16T17:46:12.767Z,54.80
2018-10-16T17:48:46.530Z,54.80
2018-10-16T17:51:20.426Z,54.70
2018-10-16T17:53:54.403Z,54.80
2018-10-16T17:56:28.206Z,55.00
2018-10-16T17:59:08.564Z,55.10
2018-10-16T18:01:43.314Z,55.30
2018-10-16T18:04:17.881Z,55.40
2018-10-16T18:06:51.510Z,55.50
2018-10-16T18:09:24.961Z,55.70
2018-10-16T18:12:04.905Z,55.90
2018-10-16T18:14:44.887Z,56.00
2018-10-16T18:17:25.036Z,56.10
2018-10-16T18:19:58.708Z,56.20
2018-10-16T18:22:33.242Z,56.50
2018-10-16T18:25:07.246Z,56.50
2018-10-16T18:27:47.001Z,56.70
2018-10-16T18:30:26.902Z,56.80
2018-10-16T18:33:00.385Z,56.80
2018-10-16T18:35:33.953Z,56.90
2018-10-16T18:38:07.853Z,57.00
2018-10-16T18:40:47.997Z,57.00
2018-10-16T18:43:21.505Z,57.20
2018-10-16T18:45:55.324Z,57.40
2018-10-16T18:48:35.451Z,57.40
2018-10-16T18:51:09.488Z,57.40
2018-10-16T18:53:49.325Z,57.60
2018-10-16T18:56:25.880Z,57.70
2018-10-16T18:58:59.546Z,57.70
2018-10-16T19:01:33.017Z,57.80
2018-10-16T19:04:07.882Z,58.10
2018-10-16T19:06:47.722Z,58.20
2018-10-16T19:09:21.281Z,58.40
2018-10-16T19:11:54.867Z,58.40
2018-10-16T19:14:28.537Z,58.50
2018-10-16T19:17:02.084Z,58.70
2018-10-16T19:19:37.722Z,58.80
2018-10-16T19:22:17.489Z,58.90
2018-10-16T19:24:57.402Z,59.10
2018-10-16T19:27:37.372Z,59.20
2018-10-16T19:30:11.811Z,59.30
2018-10-16T19:32:45.437Z,59.40
2018-10-16T19:35:25.320Z,59.50
2018-10-16T19:37:59.739Z,59.50
2018-10-16T19:40:33.225Z,59.50
2018-10-16T19:43:07.817Z,59.70
2018-10-16T19:45:47.475Z,59.90
2018-10-16T19:48:21.657Z,59.90
2018-10-16T19:50:55.213Z,59.90
2018-10-16T19:53:34.970Z,60.20
2018-10-16T19:56:08.661Z,60.10
2018-10-16T19:58:42.200Z,60.30
2018-10-16T20:01:22.090Z,60.40
2018-10-16T20:03:55.751Z,60.40
2018-10-16T20:06:35.730Z,60.50
2018-10-16T20:09:10.320Z,60.70
2018-10-16T20:11:43.711Z,60.70
2018-10-16T20:14:17.459Z,60.60
2018-10-16T20:16:57.281Z,60.70
2018-10-16T20:19:37.320Z,61.00
2018-10-16T20:22:17.279Z,61.00
2018-10-16T20:24:50.794Z,61.30
2018-10-16T20:27:30.630Z,61.40
2018-10-16T20:30:11.169Z,62.10
2018-10-16T20:32:44.765Z,61.30
2018-10-16T20:35:18.365Z,61.50
2018-10-16T20:37:51.796Z,61.50
2018-10-16T20:40:31.664Z,61.70
2018-10-16T20:43:05.353Z,61.70
2018-10-16T20:45:45.137Z,62.00
2018-10-16T20:48:18.862Z,62.10
2018-10-16T20:50:58.751Z,62.20
2018-10-16T20:53:38.617Z,62.30
2018-10-16T20:56:13.137Z,62.60
2018-10-16T20:58:53.364Z,62.70
2018-10-16T21:01:27.128Z,62.80
2018-10-16T21:04:01.562Z,62.70
2018-10-16T21:06:35.167Z,63.60
2018-10-16T21:09:08.724Z,62.90
2018-10-16T21:11:42.405Z,62.90
2018-10-16T21:14:15.945Z,62.80
2018-10-16T21:16:49.527Z,63.00
2018-10-16T21:19:22.922Z,63.10
2018-10-16T21:21:56.672Z,63.10
2018-10-16T21:24:31.295Z,63.00
2018-10-16T21:27:11.961Z,63.10
2018-10-16T21:29:45.412Z,63.10
2018-10-16T21:32:25.312Z,63.20
2018-10-16T21:35:05.881Z,63.70
2018-10-16T21:37:45.604Z,63.70
2018-10-16T21:40:25.607Z,63.60
2018-10-16T21:43:05.800Z,63.60
2018-10-16T21:45:40.605Z,63.60
2018-10-16T21:48:14.636Z,63.60
2018-10-16T21:50:49.370Z,63.60
2018-10-16T21:53:29.488Z,63.50
2018-10-16T21:56:02.931Z,63.50
2018-10-16T21:58:37.360Z,63.90
2018-10-16T22:01:12.383Z,64.10
2018-10-16T22:03:46.023Z,64.20
2018-10-16T22:06:19.627Z,64.30
2018-10-16T22:08:53.394Z,64.20
2018-10-16T22:11:26.910Z,64.30
2018-10-16T22:14:00.422Z,64.60
2018-10-16T22:16:40.375Z,64.50
2018-10-16T22:19:14.193Z,64.50
2018-10-16T22:21:47.712Z,64.60
2018-10-16T22:24:24.624Z,64.90
2018-10-16T22:27:05.036Z,65.00
2018-10-16T22:29:39.694Z,65.00
2018-10-16T22:32:19.852Z,65.00
2018-10-16T22:35:00.047Z,65.20
2018-10-16T22:37:33.575Z,65.30
2018-10-16T22:40:08.561Z,65.60
2018-10-16T22:42:42.121Z,65.60
2018-10-16T22:45:15.646Z,65.80
2018-10-16T22:47:55.438Z,65.80
2018-10-16T22:50:29.007Z,66.20
2018-10-16T22:53:02.459Z,66.40
2018-10-16T22:55:36.083Z,66.40
2018-10-16T22:58:10.707Z,67.30
2018-10-16T23:00:44.111Z,66.80
2018-10-16T23:03:17.677Z,66.70
2018-10-16T23:05:57.507Z,66.50
2018-10-16T23:08:31.042Z,66.50
2018-10-16T23:11:04.996Z,66.50
2018-10-16T23:13:38.624Z,66.60
2018-10-16T23:16:18.431Z,66.70
2018-10-16T23:18:51.983Z,67.00
2018-10-16T23:21:25.669Z,67.00
2018-10-16T23:23:59.255Z,67.00
2018-10-16T23:26:32.827Z,67.10
2018-10-16T23:29:06.497Z,67.10
2018-10-16T23:31:40.042Z,67.40
2018-10-16T23:34:13.601Z,67.10
2018-10-16T23:36:53.593Z,67.10
2018-10-16T23:39:26.950Z,67.20
2018-10-16T23:42:00.579Z,67.30
2018-10-16T23:44:34.237Z,67.30
2018-10-16T23:47:07.975Z,67.50
2018-10-16T23:49:41.500Z,67.50
2018-10-16T23:52:14.965Z,67.60
2018-10-16T23:54:49.510Z,67.60
2018-10-16T23:57:23.250Z,67.80
2018-10-16T23:59:56.818Z,68.00
